Nearby METAR Reports

 

EGVN - Brize Norton Raf, United Kingdom
Distance from station: SSE 20mi, 32km
Updated: 22/08/2018 00:50
Clear
Clear
 Wind from SW
Wind: SW 2 mph , 4 km/h
Temperature: 15°C
Dew Point: 14°C
Humidity: 94%
Barometer: 1018 hPa
Summary: Clear
Visibility: greater than 7 miles , 10 km
2018/08/21 23:50 EGVN 212350Z 23002KT CAVOK 15/14 Q1018 NOSIG
EGTK - Oxford, United Kingdom
Distance from station: SE 22mi, 35km
Updated: 21/08/2018 22:20
NOT Current
Clear
Clear
 Wind from WSW
Wind: WSW 3 mph , 6 km/h
Temperature: 16°C
Dew Point: 14°C
Humidity: 88%
Barometer: 1018 hPa
Summary: Clear
Visibility: greater than 7 miles , 10 km
2018/08/21 21:20 EGTK 212120Z 24003KT CAVOK 16/14 Q1018
 
EGBJ - Staverton (priva, United Kingdom
Distance from station: WSW 23mi, 36km
Updated: 21/08/2018 19:20
NOT Current
Few Clouds
Few Clouds
 Wind from SW
Wind: SW 9 mph , 15 km/h
Temperature: 21°C
Dew Point: 15°C
Humidity: 69%
Barometer: 1017 hPa
Clouds: Few Clouds
Visibility: 6 miles , 10 km
Cloud details: Few Clouds 1372 m
2018/08/21 18:20 EGBJ 211820Z 23008KT 190V250 9999 FEW045 21/15 Q1017
EGVA - Fairford Raf, United Kingdom
Distance from station: S 27mi, 43km
Updated: 22/08/2018 00:56
Clear
Clear
 Wind from SW
Wind: SW 6 mph , 9 km/h
Temperature: 15°C
Dew Point: 13°C
Humidity: 88%
Barometer: 1017.9 hPa
Clouds: Clear
Visibility: 6 miles , 10 km
2018/08/21 23:56 EGVA 212356Z AUTO 23005KT 9999 CLR 15/13 A3006 RMK AO2 SLP181 T01450132 10208 20145 402280145 58000 $
 
EGBB - Birmingham Airpo, United Kingdom
Distance from station: N 29mi, 46km
Updated: 22/08/2018 01:20
Clear
Clear
 Wind from SW
Wind: SW 2 mph , 4 km/h
Temperature: 17°C
Dew Point: 15°C
Humidity: 88%
Barometer: 1017 hPa
Summary: Clear
Visibility: greater than 7 miles , 10 km
2018/08/22 00:20 EGBB 220020Z 22002KT CAVOK 17/15 Q1017
EGUB - Benson Raf, United Kingdom
Distance from station: SE 40mi, 65km
Updated: 22/08/2018 00:50
Clear
Clear
 Wind from S
Wind: S 5 mph , 7 km/h
Temperature: 15°C
Dew Point: 14°C
Humidity: 94%
Barometer: 1018 hPa
Clouds: Clear
Visibility: 6 miles , 10 km
2018/08/21 23:50 EGUB 212350Z AUTO 17004KT 9999 // NCD 15/14 Q1018
 
EGTC - Cranfield, United Kingdom
Distance from station: E 46mi, 74km
Updated: 21/08/2018 17:20
NOT Current
Few Clouds
Few Clouds
 Wind from W
Wind: W 8 mph , 13 km/h
Temperature: 24°C
Dew Point: 15°C
Humidity: 57%
Barometer: 1017 hPa
Clouds: Few Clouds
Visibility: 6 miles , 10 km
Cloud details: Few Clouds 1372 m
2018/08/21 16:20 EGTC 211620Z 27007KT 210V320 9999 FEW045 24/15 Q1017
EGWC - Cosford Raf, United Kingdom
Distance from station: NNW 46mi, 75km
Updated: 21/08/2018 16:50
NOT Current
Few Clouds
Few Clouds
 Wind from SW
Wind: SW 7 mph , 11 km/h
Temperature: 25°C
Dew Point: 13°C
Humidity: 47%
Barometer: 1017 hPa
Clouds: Few Clouds
Visibility: 6 miles , 10 km
Cloud details: Few Clouds 1219 m
2018/08/21 15:50 EGWC 211550Z 22006KT 9999 FEW040 25/13 Q1017 BLU